Elbella — 9HA2358 — position and weather

sailwx.info

Track history (hours):
 
Tides and Currents Weather Stations Pressure Air Temp Water Temp Dewpoint Dewpoint Depression Visibility Wind Speed Wind Dir Waves Ship Positions

Elbella

Last reported at 2015-Jul-31 12:04 UTC. Time now 2015-Jul-31 13:21 UTC.
Position N 34°03' E 034°35'.

Length 176 m; draft 7.8 m.

Type: Ship (hazmat cat A). MMSI: 248422000.

Date/timePositionNaut miles runAvg speedWind from/ knotsBaromVisibWave heightAir tempDewpointWater temp
2015-Jul-31 12:04N 34°03' E 034°35'711.6
2015-Jul-31 11:30N 34°01' E 034°43'  
2015-Jul-27 22:03N 35°47' E 027°56'816.1
2015-Jul-27 21:33N 35°46' E 027°46'1616.3
2015-Jul-27 20:33N 35°52' E 027°27'1717.3
2015-Jul-27 19:33N 36°01' E 027°09'2417.4
2015-Jul-27 18:11N 36°05' E 026°40'1117.1
2015-Jul-27 17:33N 36°09' E 026°27'1717.4
2015-Jul-27 16:33N 36°06' E 026°06'2417.4
2015-Jul-27 15:12N 36°02' E 025°37'1117.2
2015-Jul-27 14:33N 36°01' E 025°24'1817.4
2015-Jul-27 13:33N 35°58' E 025°02'1717.0
2015-Jul-27 12:33N 35°56' E 024°42'1717.2
2015-Jul-27 11:32N 35°53' E 024°20'1817.7
2015-Jul-27 10:32N 35°50' E 023°59'1717.5
2015-Jul-27 09:33N 35°48' E 023°38'42017.2
2015-Jul-26 09:09N 35°48' E 014°59'1017.4
2015-Jul-26 08:33N 35°47' E 014°46'12 3.8
2015-Jul-26 05:30N 35°49' E 014°32'0 0.0
2015-Jul-25 20:21N 35°49' E 014°32'0 0.0
2015-Jul-25 19:21N 35°49' E 014°32'0 0.0
2015-Jul-25 18:33N 35°49' E 014°32'0 0.0
2015-Jul-25 14:24N 35°49' E 014°32'0 0.0
2015-Jul-25 13:33N 35°49' E 014°32'0 0.0
2015-Jul-25 02:31N 35°49' E 014°32'0 0.0
2015-Jul-24 23:33N 35°49' E 014°32'4 3.5
2015-Jul-24 22:33N 35°48' E 014°36'1312.6
2015-Jul-24 21:33N 35°48' E 014°52'1413.7
2015-Jul-24 20:34N 35°48' E 015°09'1413.8
2015-Jul-24 19:33N 35°48' E 015°26'1513.6
2015-Jul-24 18:27N 35°48' E 015°44'1213.5
2015-Jul-24 17:32N 35°47' E 015°60'34813.3
2015-Jul-23 15:19N 35°46' E 023°08'5513.1
2015-Jul-23 11:08N 35°53' E 024°15'813.2
2015-Jul-23 10:31N 35°54' E 024°25'1313.4
2015-Jul-23 09:32N 35°56' E 024°41'1313.1
2015-Jul-23 08:32N 35°57' E 024°57'1313.0
2015-Jul-23 07:33N 35°60' E 025°13'1313.3
2015-Jul-23 06:33N 36°01' E 025°29'1413.5
2015-Jul-23 05:33N 36°03' E 025°46'1313.0
2015-Jul-23 04:33N 36°05' E 026°02'1312.6
2015-Jul-23 03:33N 36°07' E 026°17'1212.1
2015-Jul-23 02:33N 36°07' E 026°32'1212.1
2015-Jul-23 01:33N 36°04' E 026°46'1212.1
2015-Jul-23 00:33N 36°02' E 027°01'1211.9
2015-Jul-22 23:33N 35°59' E 027°16'1111.0
2015-Jul-22 22:33N 35°55' E 027°28'1211.7
2015-Jul-22 21:33N 35°49' E 027°41'1211.8
2015-Jul-22 20:33N 35°48' E 027°55'1312.6
2015-Jul-22 19:33N 35°48' E 028°11'  
Track history (hours):
 
Tides and Currents Weather Stations Pressure Air Temp Water Temp Dewpoint Dewpoint Depression Visibility Wind Speed Wind Dir Waves Ship Positions

Elbella

Last reported at 2015-Jul-31 12:04 UTC. Time now 2015-Jul-31 13:21 UTC.
Position N 34°03' E 034°35'.

Length 176 m; draft 7.8 m.

Type: Ship (hazmat cat A). MMSI: 248422000.

Date/timePositionNaut miles runAvg speedWind from/ knotsBaromVisibWave heightAir tempDewpointWater temp
2015-Jul-31 12:04N 34°03' E 034°35'711.6
2015-Jul-31 11:30N 34°01' E 034°43'  
2015-Jul-27 22:03N 35°47' E 027°56'816.1
2015-Jul-27 21:33N 35°46' E 027°46'1616.3
2015-Jul-27 20:33N 35°52' E 027°27'1717.3
2015-Jul-27 19:33N 36°01' E 027°09'2417.4
2015-Jul-27 18:11N 36°05' E 026°40'1117.1
2015-Jul-27 17:33N 36°09' E 026°27'1717.4
2015-Jul-27 16:33N 36°06' E 026°06'2417.4
2015-Jul-27 15:12N 36°02' E 025°37'1117.2
2015-Jul-27 14:33N 36°01' E 025°24'1817.4
2015-Jul-27 13:33N 35°58' E 025°02'1717.0
2015-Jul-27 12:33N 35°56' E 024°42'1717.2
2015-Jul-27 11:32N 35°53' E 024°20'1817.7
2015-Jul-27 10:32N 35°50' E 023°59'1717.5
2015-Jul-27 09:33N 35°48' E 023°38'42017.2
2015-Jul-26 09:09N 35°48' E 014°59'1017.4
2015-Jul-26 08:33N 35°47' E 014°46'12 3.8
2015-Jul-26 05:30N 35°49' E 014°32'0 0.0
2015-Jul-25 20:21N 35°49' E 014°32'0 0.0
2015-Jul-25 19:21N 35°49' E 014°32'0 0.0
2015-Jul-25 18:33N 35°49' E 014°32'0 0.0
2015-Jul-25 14:24N 35°49' E 014°32'0 0.0
2015-Jul-25 13:33N 35°49' E 014°32'0 0.0
2015-Jul-25 02:31N 35°49' E 014°32'0 0.0
2015-Jul-24 23:33N 35°49' E 014°32'4 3.5
2015-Jul-24 22:33N 35°48' E 014°36'1312.6
2015-Jul-24 21:33N 35°48' E 014°52'1413.7
2015-Jul-24 20:34N 35°48' E 015°09'1413.8
2015-Jul-24 19:33N 35°48' E 015°26'1513.6
2015-Jul-24 18:27N 35°48' E 015°44'1213.5
2015-Jul-24 17:32N 35°47' E 015°60'34813.3
2015-Jul-23 15:19N 35°46' E 023°08'5513.1
2015-Jul-23 11:08N 35°53' E 024°15'813.2
2015-Jul-23 10:31N 35°54' E 024°25'1313.4
2015-Jul-23 09:32N 35°56' E 024°41'1313.1
2015-Jul-23 08:32N 35°57' E 024°57'1313.0
2015-Jul-23 07:33N 35°60' E 025°13'1313.3
2015-Jul-23 06:33N 36°01' E 025°29'1413.5
2015-Jul-23 05:33N 36°03' E 025°46'1313.0
2015-Jul-23 04:33N 36°05' E 026°02'1312.6
2015-Jul-23 03:33N 36°07' E 026°17'1212.1
2015-Jul-23 02:33N 36°07' E 026°32'1212.1
2015-Jul-23 01:33N 36°04' E 026°46'1212.1
2015-Jul-23 00:33N 36°02' E 027°01'1211.9
2015-Jul-22 23:33N 35°59' E 027°16'1111.0
2015-Jul-22 22:33N 35°55' E 027°28'1211.7
2015-Jul-22 21:33N 35°49' E 027°41'1211.8
2015-Jul-22 20:33N 35°48' E 027°55'1312.6
2015-Jul-22 19:33N 35°48' E 028°11'  

Dump ship's entire track history